sensor_id;sensor_type;location;lat;lon;timestamp;P1;durP1;ratioP1;P2;durP2;ratioP2
15258;SDS011;34462;51.368;12.364;2023-05-16T00:01:58;11.40;;;10.30;;
15258;SDS011;34462;51.368;12.364;2023-05-16T00:04:28;11.53;;;10.43;;
15258;SDS011;34462;51.368;12.364;2023-05-16T00:06:58;11.20;;;10.10;;
15258;SDS011;34462;51.368;12.364;2023-05-16T00:09:26;11.80;;;10.57;;
15258;SDS011;34462;51.368;12.364;2023-05-16T00:11:54;11.47;;;10.40;;
15258;SDS011;34462;51.368;12.364;2023-05-16T00:14:23;12.93;;;11.47;;
15258;SDS011;34462;51.368;12.364;2023-05-16T00:16:53;11.27;;;10.27;;
15258;SDS011;34462;51.368;12.364;2023-05-16T00:19:22;13.40;;;10.90;;
15258;SDS011;34462;51.368;12.364;2023-05-16T00:21:51;11.43;;;10.43;;
15258;SDS011;34462;51.368;12.364;2023-05-16T00:24:19;11.00;;;10.00;;
15258;SDS011;34462;51.368;12.364;2023-05-16T00:26:48;12.40;;;11.23;;
15258;SDS011;34462;51.368;12.364;2023-05-16T00:29:16;12.40;;;11.20;;
15258;SDS011;34462;51.368;12.364;2023-05-16T00:31:44;12.90;;;10.93;;
15258;SDS011;34462;51.368;12.364;2023-05-16T00:34:13;12.00;;;10.77;;
15258;SDS011;34462;51.368;12.364;2023-05-16T00:36:42;12.07;;;10.90;;
15258;SDS011;34462;51.368;12.364;2023-05-16T00:39:11;12.20;;;10.80;;
15258;SDS011;34462;51.368;12.364;2023-05-16T00:41:39;13.07;;;11.77;;
15258;SDS011;34462;51.368;12.364;2023-05-16T00:44:08;12.37;;;11.13;;
15258;SDS011;34462;51.368;12.364;2023-05-16T00:46:36;12.13;;;11.13;;
15258;SDS011;34462;51.368;12.364;2023-05-16T00:49:04;12.17;;;11.07;;
15258;SDS011;34462;51.368;12.364;2023-05-16T00:51:34;12.27;;;11.07;;
15258;SDS011;34462;51.368;12.364;2023-05-16T00:54:05;12.40;;;11.30;;
15258;SDS011;34462;51.368;12.364;2023-05-16T00:56:33;12.07;;;10.93;;
15258;SDS011;34462;51.368;12.364;2023-05-16T00:59:02;14.57;;;13.13;;
15258;SDS011;34462;51.368;12.364;2023-05-16T01:01:30;14.20;;;12.70;;
15258;SDS011;34462;51.368;12.364;2023-05-16T01:04:01;13.50;;;12.20;;
15258;SDS011;34462;51.368;12.364;2023-05-16T01:06:31;13.00;;;11.80;;
15258;SDS011;34462;51.368;12.364;2023-05-16T01:09:01;12.60;;;11.50;;
15258;SDS011;34462;51.368;12.364;2023-05-16T01:11:30;13.30;;;11.73;;
15258;SDS011;34462;51.368;12.364;2023-05-16T01:14:08;12.87;;;11.53;;
15258;SDS011;34462;51.368;12.364;2023-05-16T01:16:53;12.90;;;11.70;;
15258;SDS011;34462;51.368;12.364;2023-05-16T01:19:40;12.60;;;11.50;;
15258;SDS011;34462;51.368;12.364;2023-05-16T01:22:35;12.30;;;11.07;;
15258;SDS011;34462;51.368;12.364;2023-05-16T01:25:25;12.20;;;11.10;;
15258;SDS011;34462;51.368;12.364;2023-05-16T01:28:06;12.13;;;10.93;;
15258;SDS011;34462;51.368;12.364;2023-05-16T01:30:38;12.67;;;11.47;;
15258;SDS011;34462;51.368;12.364;2023-05-16T01:33:07;13.70;;;11.37;;
15258;SDS011;34462;51.368;12.364;2023-05-16T01:35:38;12.43;;;11.23;;
15258;SDS011;34462;51.368;12.364;2023-05-16T01:38:15;12.97;;;11.67;;
15258;SDS011;34462;51.368;12.364;2023-05-16T01:40:54;12.57;;;11.27;;
15258;SDS011;34462;51.368;12.364;2023-05-16T01:43:33;13.17;;;11.17;;
15258;SDS011;34462;51.368;12.364;2023-05-16T01:46:11;14.23;;;11.13;;
15258;SDS011;34462;51.368;12.364;2023-05-16T01:48:43;12.40;;;11.20;;
15258;SDS011;34462;51.368;12.364;2023-05-16T01:51:20;11.73;;;10.53;;
15258;SDS011;34462;51.368;12.364;2023-05-16T01:53:57;11.93;;;10.80;;
15258;SDS011;34462;51.368;12.364;2023-05-16T01:56:32;12.73;;;11.53;;
15258;SDS011;34462;51.368;12.364;2023-05-16T01:59:04;11.47;;;10.37;;
15258;SDS011;34462;51.368;12.364;2023-05-16T02:01:34;12.30;;;10.97;;
15258;SDS011;34462;51.368;12.364;2023-05-16T02:04:03;14.40;;;10.67;;
15258;SDS011;34462;51.368;12.364;2023-05-16T02:06:31;13.57;;;10.73;;
15258;SDS011;34462;51.368;12.364;2023-05-16T02:09:00;11.37;;;10.17;;
15258;SDS011;34462;51.368;12.364;2023-05-16T02:11:28;11.63;;;10.43;;
15258;SDS011;34462;51.368;12.364;2023-05-16T02:13:56;14.20;;;11.00;;
15258;SDS011;34462;51.368;12.364;2023-05-16T02:16:26;12.10;;;10.90;;
15258;SDS011;34462;51.368;12.364;2023-05-16T02:18:56;13.50;;;11.40;;
15258;SDS011;34462;51.368;12.364;2023-05-16T02:21:24;13.03;;;11.47;;
15258;SDS011;34462;51.368;12.364;2023-05-16T02:23:53;13.67;;;12.03;;
15258;SDS011;34462;51.368;12.364;2023-05-16T02:26:21;15.33;;;13.83;;
15258;SDS011;34462;51.368;12.364;2023-05-16T02:28:49;15.70;;;14.10;;
15258;SDS011;34462;51.368;12.364;2023-05-16T02:31:25;16.63;;;13.90;;
15258;SDS011;34462;51.368;12.364;2023-05-16T02:33:55;17.60;;;14.50;;
15258;SDS011;34462;51.368;12.364;2023-05-16T02:36:24;16.80;;;15.00;;
15258;SDS011;34462;51.368;12.364;2023-05-16T02:38:52;17.87;;;14.93;;
15258;SDS011;34462;51.368;12.364;2023-05-16T02:41:21;20.07;;;17.70;;
15258;SDS011;34462;51.368;12.364;2023-05-16T02:43:49;23.83;;;19.50;;
15258;SDS011;34462;51.368;12.364;2023-05-16T02:46:23;27.50;;;21.93;;
15258;SDS011;34462;51.368;12.364;2023-05-16T02:48:56;29.10;;;22.97;;
15258;SDS011;34462;51.368;12.364;2023-05-16T02:51:25;26.10;;;22.67;;
15258;SDS011;34462;51.368;12.364;2023-05-16T02:53:54;25.93;;;22.47;;
15258;SDS011;34462;51.368;12.364;2023-05-16T02:56:24;28.43;;;22.23;;
15258;SDS011;34462;51.368;12.364;2023-05-16T02:58:53;29.93;;;23.40;;
15258;SDS011;34462;51.368;12.364;2023-05-16T03:01:22;28.53;;;22.80;;
15258;SDS011;34462;51.368;12.364;2023-05-16T03:03:52;29.43;;;23.67;;
15258;SDS011;34462;51.368;12.364;2023-05-16T03:06:20;27.60;;;23.60;;
15258;SDS011;34462;51.368;12.364;2023-05-16T03:08:48;26.80;;;23.13;;
15258;SDS011;34462;51.368;12.364;2023-05-16T03:11:17;29.93;;;23.23;;
15258;SDS011;34462;51.368;12.364;2023-05-16T03:13:46;26.93;;;22.83;;
15258;SDS011;34462;51.368;12.364;2023-05-16T03:16:15;27.57;;;22.60;;
15258;SDS011;34462;51.368;12.364;2023-05-16T03:18:43;25.70;;;22.63;;
15258;SDS011;34462;51.368;12.364;2023-05-16T03:21:13;27.20;;;22.23;;
15258;SDS011;34462;51.368;12.364;2023-05-16T03:23:42;26.40;;;23.10;;
15258;SDS011;34462;51.368;12.364;2023-05-16T03:26:10;28.47;;;24.47;;
15258;SDS011;34462;51.368;12.364;2023-05-16T03:28:38;25.07;;;22.10;;
15258;SDS011;34462;51.368;12.364;2023-05-16T03:31:06;26.13;;;23.20;;
15258;SDS011;34462;51.368;12.364;2023-05-16T03:33:34;28.50;;;22.90;;
15258;SDS011;34462;51.368;12.364;2023-05-16T03:36:03;25.90;;;22.33;;
15258;SDS011;34462;51.368;12.364;2023-05-16T03:38:33;24.67;;;21.10;;
15258;SDS011;34462;51.368;12.364;2023-05-16T03:41:01;26.77;;;22.17;;
15258;SDS011;34462;51.368;12.364;2023-05-16T03:43:29;28.07;;;23.00;;
15258;SDS011;34462;51.368;12.364;2023-05-16T03:45:59;25.13;;;21.70;;
15258;SDS011;34462;51.368;12.364;2023-05-16T03:48:28;25.17;;;22.20;;
15258;SDS011;34462;51.368;12.364;2023-05-16T03:50:56;25.57;;;21.37;;
15258;SDS011;34462;51.368;12.364;2023-05-16T03:53:24;25.97;;;21.23;;
15258;SDS011;34462;51.368;12.364;2023-05-16T03:55:54;25.83;;;21.00;;
15258;SDS011;34462;51.368;12.364;2023-05-16T03:58:22;23.13;;;20.50;;
15258;SDS011;34462;51.368;12.364;2023-05-16T04:00:50;25.60;;;21.77;;
15258;SDS011;34462;51.368;12.364;2023-05-16T04:03:18;23.43;;;19.83;;
15258;SDS011;34462;51.368;12.364;2023-05-16T04:05:53;25.10;;;21.10;;
15258;SDS011;34462;51.368;12.364;2023-05-16T04:08:21;23.53;;;21.03;;
15258;SDS011;34462;51.368;12.364;2023-05-16T04:10:50;21.83;;;18.93;;
15258;SDS011;34462;51.368;12.364;2023-05-16T04:13:19;21.73;;;19.43;;
15258;SDS011;34462;51.368;12.364;2023-05-16T04:15:47;22.77;;;19.40;;
15258;SDS011;34462;51.368;12.364;2023-05-16T04:18:16;20.63;;;18.40;;
15258;SDS011;34462;51.368;12.364;2023-05-16T04:20:45;22.60;;;18.20;;
15258;SDS011;34462;51.368;12.364;2023-05-16T04:23:13;20.37;;;18.17;;
15258;SDS011;34462;51.368;12.364;2023-05-16T04:25:41;20.50;;;17.87;;
15258;SDS011;34462;51.368;12.364;2023-05-16T04:28:09;20.23;;;18.03;;
15258;SDS011;34462;51.368;12.364;2023-05-16T04:30:40;21.67;;;17.67;;
15258;SDS011;34462;51.368;12.364;2023-05-16T04:33:08;20.53;;;17.80;;
15258;SDS011;34462;51.368;12.364;2023-05-16T04:35:36;20.67;;;17.17;;
15258;SDS011;34462;51.368;12.364;2023-05-16T04:38:05;18.87;;;16.87;;
15258;SDS011;34462;51.368;12.364;2023-05-16T04:40:33;19.97;;;17.30;;
15258;SDS011;34462;51.368;12.364;2023-05-16T04:43:01;19.53;;;17.43;;
15258;SDS011;34462;51.368;12.364;2023-05-16T04:45:30;19.63;;;17.00;;
15258;SDS011;34462;51.368;12.364;2023-05-16T04:48:01;20.47;;;17.83;;
15258;SDS011;34462;51.368;12.364;2023-05-16T04:50:30;21.03;;;18.17;;
15258;SDS011;34462;51.368;12.364;2023-05-16T04:52:58;21.47;;;18.27;;
15258;SDS011;34462;51.368;12.364;2023-05-16T04:55:27;22.47;;;18.50;;
15258;SDS011;34462;51.368;12.364;2023-05-16T04:57:55;22.47;;;17.50;;
15258;SDS011;34462;51.368;12.364;2023-05-16T05:00:24;19.53;;;17.43;;
15258;SDS011;34462;51.368;12.364;2023-05-16T05:02:52;19.47;;;17.37;;
15258;SDS011;34462;51.368;12.364;2023-05-16T05:05:22;21.07;;;17.70;;
15258;SDS011;34462;51.368;12.364;2023-05-16T05:07:50;18.60;;;16.53;;
15258;SDS011;34462;51.368;12.364;2023-05-16T05:10:19;16.20;;;14.60;;
15258;SDS011;34462;51.368;12.364;2023-05-16T05:12:47;16.17;;;14.43;;
15258;SDS011;34462;51.368;12.364;2023-05-16T05:15:16;16.17;;;14.47;;
15258;SDS011;34462;51.368;12.364;2023-05-16T05:17:44;14.90;;;12.83;;
15258;SDS011;34462;51.368;12.364;2023-05-16T05:20:12;14.33;;;12.87;;
15258;SDS011;34462;51.368;12.364;2023-05-16T05:22:42;14.33;;;12.17;;
15258;SDS011;34462;51.368;12.364;2023-05-16T05:25:10;13.53;;;11.63;;
15258;SDS011;34462;51.368;12.364;2023-05-16T05:27:39;12.60;;;11.30;;
15258;SDS011;34462;51.368;12.364;2023-05-16T05:30:07;13.33;;;11.73;;
15258;SDS011;34462;51.368;12.364;2023-05-16T05:32:36;12.03;;;10.57;;
15258;SDS011;34462;51.368;12.364;2023-05-16T05:35:05;11.63;;;10.43;;
15258;SDS011;34462;51.368;12.364;2023-05-16T05:37:33;11.97;;;9.80;;
15258;SDS011;34462;51.368;12.364;2023-05-16T05:40:04;10.17;;;9.13;;
15258;SDS011;34462;51.368;12.364;2023-05-16T05:42:33;11.33;;;9.43;;
15258;SDS011;34462;51.368;12.364;2023-05-16T05:45:02;9.63;;;8.23;;
15258;SDS011;34462;51.368;12.364;2023-05-16T05:47:32;9.67;;;8.13;;
15258;SDS011;34462;51.368;12.364;2023-05-16T05:50:02;9.13;;;8.23;;
15258;SDS011;34462;51.368;12.364;2023-05-16T05:52:31;11.43;;;7.73;;
15258;SDS011;34462;51.368;12.364;2023-05-16T05:54:59;8.33;;;7.30;;
15258;SDS011;34462;51.368;12.364;2023-05-16T05:57:29;7.63;;;6.83;;
15258;SDS011;34462;51.368;12.364;2023-05-16T05:59:57;10.37;;;6.70;;
15258;SDS011;34462;51.368;12.364;2023-05-16T06:02:25;8.53;;;6.50;;
15258;SDS011;34462;51.368;12.364;2023-05-16T06:04:54;6.67;;;6.07;;
15258;SDS011;34462;51.368;12.364;2023-05-16T06:07:22;7.10;;;6.40;;
15258;SDS011;34462;51.368;12.364;2023-05-16T06:09:51;7.40;;;6.60;;
15258;SDS011;34462;51.368;12.364;2023-05-16T06:12:19;6.27;;;5.67;;
15258;SDS011;34462;51.368;12.364;2023-05-16T06:14:48;7.37;;;6.33;;
15258;SDS011;34462;51.368;12.364;2023-05-16T06:17:16;9.60;;;6.33;;
15258;SDS011;34462;51.368;12.364;2023-05-16T06:19:45;7.93;;;6.90;;
15258;SDS011;34462;51.368;12.364;2023-05-16T06:22:13;6.47;;;5.83;;
15258;SDS011;34462;51.368;12.364;2023-05-16T06:24:41;6.50;;;5.80;;
15258;SDS011;34462;51.368;12.364;2023-05-16T06:27:09;6.10;;;5.60;;
15258;SDS011;34462;51.368;12.364;2023-05-16T06:29:37;6.50;;;5.60;;
15258;SDS011;34462;51.368;12.364;2023-05-16T06:32:07;7.47;;;5.53;;
15258;SDS011;34462;51.368;12.364;2023-05-16T06:34:38;6.67;;;5.77;;
15258;SDS011;34462;51.368;12.364;2023-05-16T06:37:06;4.63;;;4.30;;
15258;SDS011;34462;51.368;12.364;2023-05-16T06:39:34;5.77;;;4.43;;
15258;SDS011;34462;51.368;12.364;2023-05-16T06:42:03;4.80;;;4.30;;
15258;SDS011;34462;51.368;12.364;2023-05-16T06:44:32;5.13;;;4.37;;
15258;SDS011;34462;51.368;12.364;2023-05-16T06:47:00;6.50;;;4.60;;
15258;SDS011;34462;51.368;12.364;2023-05-16T06:49:30;6.63;;;4.97;;
15258;SDS011;34462;51.368;12.364;2023-05-16T06:51:58;4.90;;;4.37;;
15258;SDS011;34462;51.368;12.364;2023-05-16T06:54:26;8.03;;;4.70;;
15258;SDS011;34462;51.368;12.364;2023-05-16T06:56:54;5.80;;;5.20;;
15258;SDS011;34462;51.368;12.364;2023-05-16T06:59:22;6.27;;;4.23;;
15258;SDS011;34462;51.368;12.364;2023-05-16T07:01:53;6.13;;;4.23;;
15258;SDS011;34462;51.368;12.364;2023-05-16T07:04:21;4.73;;;4.30;;
15258;SDS011;34462;51.368;12.364;2023-05-16T07:06:51;6.37;;;4.53;;
15258;SDS011;34462;51.368;12.364;2023-05-16T07:09:19;5.43;;;4.37;;
15258;SDS011;34462;51.368;12.364;2023-05-16T07:11:48;6.57;;;4.43;;
15258;SDS011;34462;51.368;12.364;2023-05-16T07:14:16;5.40;;;4.60;;
15258;SDS011;34462;51.368;12.364;2023-05-16T07:16:44;6.33;;;4.43;;
15258;SDS011;34462;51.368;12.364;2023-05-16T07:19:13;4.60;;;3.70;;
15258;SDS011;34462;51.368;12.364;2023-05-16T07:21:41;5.97;;;4.40;;
15258;SDS011;34462;51.368;12.364;2023-05-16T07:24:11;6.17;;;4.70;;
15258;SDS011;34462;51.368;12.364;2023-05-16T07:26:39;4.10;;;3.70;;
15258;SDS011;34462;51.368;12.364;2023-05-16T07:29:07;4.50;;;4.10;;
15258;SDS011;34462;51.368;12.364;2023-05-16T07:31:35;5.90;;;4.27;;
15258;SDS011;34462;51.368;12.364;2023-05-16T07:34:04;4.70;;;4.10;;
15258;SDS011;34462;51.368;12.364;2023-05-16T07:36:32;5.90;;;4.33;;
15258;SDS011;34462;51.368;12.364;2023-05-16T07:39:02;4.33;;;3.93;;
15258;SDS011;34462;51.368;12.364;2023-05-16T07:41:32;7.20;;;4.37;;
15258;SDS011;34462;51.368;12.364;2023-05-16T07:44:00;4.63;;;4.03;;
15258;SDS011;34462;51.368;12.364;2023-05-16T07:46:28;5.87;;;4.00;;
15258;SDS011;34462;51.368;12.364;2023-05-16T07:48:56;5.13;;;4.63;;
15258;SDS011;34462;51.368;12.364;2023-05-16T07:51:25;4.88;;;4.47;;
15258;SDS011;34462;51.368;12.364;2023-05-16T07:53:54;5.63;;;4.55;;
15258;SDS011;34462;51.368;12.364;2023-05-16T07:56:22;4.93;;;4.23;;
15258;SDS011;34462;51.368;12.364;2023-05-16T07:58:52;5.47;;;4.73;;
15258;SDS011;34462;51.368;12.364;2023-05-16T08:01:20;4.83;;;4.33;;
15258;SDS011;34462;51.368;12.364;2023-05-16T08:03:49;4.93;;;4.43;;
15258;SDS011;34462;51.368;12.364;2023-05-16T08:06:18;4.30;;;3.90;;
15258;SDS011;34462;51.368;12.364;2023-05-16T08:08:47;5.38;;;3.90;;
15258;SDS011;34462;51.368;12.364;2023-05-16T08:11:15;5.15;;;3.92;;
15258;SDS011;34462;51.368;12.364;2023-05-16T08:13:44;4.03;;;3.47;;
15258;SDS011;34462;51.368;12.364;2023-05-16T08:16:14;4.22;;;2.85;;
15258;SDS011;34462;51.368;12.364;2023-05-16T08:18:42;3.58;;;3.00;;
15258;SDS011;34462;51.368;12.364;2023-05-16T08:21:11;2.80;;;2.55;;
15258;SDS011;34462;51.368;12.364;2023-05-16T08:23:41;4.03;;;2.88;;
15258;SDS011;34462;51.368;12.364;2023-05-16T08:26:10;3.25;;;2.95;;
15258;SDS011;34462;51.368;12.364;2023-05-16T08:28:38;5.85;;;3.38;;
15258;SDS011;34462;51.368;12.364;2023-05-16T08:31:06;3.65;;;3.05;;
15258;SDS011;34462;51.368;12.364;2023-05-16T08:33:36;3.25;;;2.80;;
15258;SDS011;34462;51.368;12.364;2023-05-16T08:36:04;2.90;;;2.40;;
15258;SDS011;34462;51.368;12.364;2023-05-16T08:38:33;3.28;;;2.88;;
15258;SDS011;34462;51.368;12.364;2023-05-16T08:41:02;3.35;;;2.30;;
15258;SDS011;34462;51.368;12.364;2023-05-16T08:43:31;2.65;;;2.45;;
15258;SDS011;34462;51.368;12.364;2023-05-16T08:46:01;3.30;;;2.45;;
15258;SDS011;34462;51.368;12.364;2023-05-16T08:48:29;3.95;;;2.97;;
15258;SDS011;34462;51.368;12.364;2023-05-16T08:51:01;4.25;;;2.40;;
15258;SDS011;34462;51.368;12.364;2023-05-16T08:53:36;3.67;;;2.80;;
15258;SDS011;34462;51.368;12.364;2023-05-16T08:56:11;2.60;;;2.40;;
15258;SDS011;34462;51.368;12.364;2023-05-16T08:58:42;2.40;;;2.20;;
15258;SDS011;34462;51.368;12.364;2023-05-16T09:01:11;2.58;;;2.38;;
15258;SDS011;34462;51.368;12.364;2023-05-16T09:03:41;2.83;;;2.00;;
15258;SDS011;34462;51.368;12.364;2023-05-16T09:06:11;4.40;;;2.45;;
15258;SDS011;34462;51.368;12.364;2023-05-16T09:08:40;4.07;;;2.00;;
15258;SDS011;34462;51.368;12.364;2023-05-16T09:11:08;2.85;;;2.20;;
15258;SDS011;34462;51.368;12.364;2023-05-16T09:13:37;2.70;;;2.00;;
15258;SDS011;34462;51.368;12.364;2023-05-16T09:16:09;2.60;;;2.03;;
15258;SDS011;34462;51.368;12.364;2023-05-16T09:18:40;2.60;;;2.40;;
15258;SDS011;34462;51.368;12.364;2023-05-16T09:21:12;2.65;;;2.25;;
15258;SDS011;34462;51.368;12.364;2023-05-16T09:23:41;2.75;;;2.35;;
15258;SDS011;34462;51.368;12.364;2023-05-16T09:26:11;3.88;;;2.40;;
15258;SDS011;34462;51.368;12.364;2023-05-16T09:28:40;5.10;;;2.50;;
15258;SDS011;34462;51.368;12.364;2023-05-16T09:31:19;2.70;;;2.30;;
15258;SDS011;34462;51.368;12.364;2023-05-16T09:33:50;4.65;;;2.10;;
15258;SDS011;34462;51.368;12.364;2023-05-16T09:36:19;2.55;;;2.35;;
15258;SDS011;34462;51.368;12.364;2023-05-16T09:38:48;3.65;;;2.33;;
15258;SDS011;34462;51.368;12.364;2023-05-16T09:41:20;5.70;;;2.60;;
15258;SDS011;34462;51.368;12.364;2023-05-16T09:43:48;5.40;;;2.50;;
15258;SDS011;34462;51.368;12.364;2023-05-16T09:46:19;2.72;;;2.20;;
15258;SDS011;34462;51.368;12.364;2023-05-16T09:48:53;2.72;;;2.50;;
15258;SDS011;34462;51.368;12.364;2023-05-16T09:51:23;4.00;;;1.88;;
15258;SDS011;34462;51.368;12.364;2023-05-16T09:53:53;2.83;;;1.95;;
15258;SDS011;34462;51.368;12.364;2023-05-16T09:56:21;3.17;;;1.88;;
15258;SDS011;34462;51.368;12.364;2023-05-16T09:58:50;2.60;;;1.63;;
15258;SDS011;34462;51.368;12.364;2023-05-16T10:01:19;3.70;;;1.67;;
15258;SDS011;34462;51.368;12.364;2023-05-16T10:03:48;5.15;;;2.03;;
15258;SDS011;34462;51.368;12.364;2023-05-16T10:06:18;4.60;;;1.80;;
15258;SDS011;34462;51.368;12.364;2023-05-16T10:08:49;3.67;;;1.70;;
15258;SDS011;34462;51.368;12.364;2023-05-16T10:11:18;3.87;;;1.83;;
15258;SDS011;34462;51.368;12.364;2023-05-16T10:13:47;2.97;;;1.90;;
15258;SDS011;34462;51.368;12.364;2023-05-16T10:16:18;4.53;;;1.65;;
15258;SDS011;34462;51.368;12.364;2023-05-16T10:18:49;5.05;;;1.60;;
15258;SDS011;34462;51.368;12.364;2023-05-16T10:21:21;2.88;;;1.77;;
15258;SDS011;34462;51.368;12.364;2023-05-16T10:23:53;2.30;;;1.58;;
15258;SDS011;34462;51.368;12.364;2023-05-16T10:26:29;3.50;;;1.73;;
15258;SDS011;34462;51.368;12.364;2023-05-16T10:28:59;2.33;;;1.50;;
15258;SDS011;34462;51.368;12.364;2023-05-16T10:31:29;3.00;;;1.67;;
15258;SDS011;34462;51.368;12.364;2023-05-16T10:33:58;3.92;;;1.80;;
15258;SDS011;34462;51.368;12.364;2023-05-16T10:36:27;3.65;;;1.60;;
15258;SDS011;34462;51.368;12.364;2023-05-16T10:38:57;6.38;;;1.75;;
15258;SDS011;34462;51.368;12.364;2023-05-16T10:41:27;3.70;;;1.60;;
15258;SDS011;34462;51.368;12.364;2023-05-16T10:43:56;4.40;;;1.75;;
15258;SDS011;34462;51.368;12.364;2023-05-16T10:46:25;2.70;;;1.50;;
15258;SDS011;34462;51.368;12.364;2023-05-16T10:48:55;4.00;;;1.80;;
15258;SDS011;34462;51.368;12.364;2023-05-16T10:51:34;4.95;;;2.22;;
15258;SDS011;34462;51.368;12.364;2023-05-16T10:54:06;5.45;;;2.15;;
15258;SDS011;34462;51.368;12.364;2023-05-16T10:56:39;6.80;;;2.28;;
15258;SDS011;34462;51.368;12.364;2023-05-16T10:59:20;3.40;;;1.77;;
15258;SDS011;34462;51.368;12.364;2023-05-16T11:01:51;4.50;;;2.13;;
15258;SDS011;34462;51.368;12.364;2023-05-16T11:04:21;6.80;;;1.92;;
15258;SDS011;34462;51.368;12.364;2023-05-16T11:06:50;3.30;;;1.80;;
15258;SDS011;34462;51.368;12.364;2023-05-16T11:09:26;3.55;;;2.00;;
15258;SDS011;34462;51.368;12.364;2023-05-16T11:11:55;3.13;;;1.95;;
15258;SDS011;34462;51.368;12.364;2023-05-16T11:14:26;5.22;;;2.03;;
15258;SDS011;34462;51.368;12.364;2023-05-16T11:17:06;3.42;;;1.85;;
15258;SDS011;34462;51.368;12.364;2023-05-16T11:19:41;5.28;;;2.10;;
15258;SDS011;34462;51.368;12.364;2023-05-16T11:22:13;4.85;;;2.28;;
15258;SDS011;34462;51.368;12.364;2023-05-16T11:24:54;5.15;;;1.92;;
15258;SDS011;34462;51.368;12.364;2023-05-16T11:27:26;8.02;;;1.92;;
15258;SDS011;34462;51.368;12.364;2023-05-16T11:30:01;5.18;;;1.90;;
15258;SDS011;34462;51.368;12.364;2023-05-16T11:32:41;4.45;;;1.98;;
15258;SDS011;34462;51.368;12.364;2023-05-16T11:35:13;5.28;;;2.10;;
15258;SDS011;34462;51.368;12.364;2023-05-16T11:37:43;6.85;;;1.90;;
15258;SDS011;34462;51.368;12.364;2023-05-16T11:40:15;5.85;;;2.28;;
15258;SDS011;34462;51.368;12.364;2023-05-16T11:42:45;6.05;;;2.70;;
15258;SDS011;34462;51.368;12.364;2023-05-16T11:45:15;6.57;;;2.05;;
15258;SDS011;34462;51.368;12.364;2023-05-16T11:47:45;5.82;;;2.10;;
15258;SDS011;34462;51.368;12.364;2023-05-16T11:50:16;5.32;;;2.05;;
15258;SDS011;34462;51.368;12.364;2023-05-16T11:52:47;4.35;;;1.88;;
15258;SDS011;34462;51.368;12.364;2023-05-16T11:55:22;4.55;;;2.08;;
15258;SDS011;34462;51.368;12.364;2023-05-16T11:58:07;6.63;;;2.47;;
15258;SDS011;34462;51.368;12.364;2023-05-16T12:00:43;6.43;;;2.20;;
15258;SDS011;34462;51.368;12.364;2023-05-16T12:03:16;5.90;;;1.85;;
15258;SDS011;34462;51.368;12.364;2023-05-16T12:05:50;5.00;;;2.03;;
15258;SDS011;34462;51.368;12.364;2023-05-16T12:08:19;3.25;;;1.75;;
15258;SDS011;34462;51.368;12.364;2023-05-16T12:10:51;4.68;;;1.75;;
15258;SDS011;34462;51.368;12.364;2023-05-16T12:13:21;6.63;;;2.10;;
15258;SDS011;34462;51.368;12.364;2023-05-16T12:15:51;4.95;;;1.92;;
15258;SDS011;34462;51.368;12.364;2023-05-16T12:18:20;6.40;;;1.98;;
15258;SDS011;34462;51.368;12.364;2023-05-16T12:20:50;5.97;;;2.00;;
15258;SDS011;34462;51.368;12.364;2023-05-16T12:23:19;4.20;;;2.30;;
15258;SDS011;34462;51.368;12.364;2023-05-16T12:25:47;7.93;;;2.30;;
15258;SDS011;34462;51.368;12.364;2023-05-16T12:28:17;5.65;;;1.88;;
15258;SDS011;34462;51.368;12.364;2023-05-16T12:30:45;5.25;;;1.67;;
15258;SDS011;34462;51.368;12.364;2023-05-16T12:33:14;5.55;;;1.80;;
15258;SDS011;34462;51.368;12.364;2023-05-16T12:35:43;6.60;;;2.03;;
15258;SDS011;34462;51.368;12.364;2023-05-16T12:38:13;4.07;;;1.85;;
15258;SDS011;34462;51.368;12.364;2023-05-16T12:40:43;5.47;;;2.22;;
15258;SDS011;34462;51.368;12.364;2023-05-16T12:43:12;5.43;;;1.77;;
15258;SDS011;34462;51.368;12.364;2023-05-16T12:45:43;5.30;;;1.90;;
15258;SDS011;34462;51.368;12.364;2023-05-16T12:48:18;3.40;;;1.42;;
15258;SDS011;34462;51.368;12.364;2023-05-16T12:50:46;5.38;;;1.58;;
15258;SDS011;34462;51.368;12.364;2023-05-16T12:53:16;6.32;;;1.60;;
15258;SDS011;34462;51.368;12.364;2023-05-16T12:55:46;4.50;;;1.70;;
15258;SDS011;34462;51.368;12.364;2023-05-16T12:58:14;3.60;;;1.60;;
15258;SDS011;34462;51.368;12.364;2023-05-16T13:00:46;5.03;;;1.50;;
15258;SDS011;34462;51.368;12.364;2023-05-16T13:03:14;6.07;;;1.75;;
15258;SDS011;34462;51.368;12.364;2023-05-16T13:05:43;6.50;;;1.58;;
15258;SDS011;34462;51.368;12.364;2023-05-16T13:08:11;7.97;;;1.45;;
15258;SDS011;34462;51.368;12.364;2023-05-16T13:10:39;8.85;;;1.70;;
15258;SDS011;34462;51.368;12.364;2023-05-16T13:13:08;2.72;;;1.25;;
15258;SDS011;34462;51.368;12.364;2023-05-16T13:15:42;5.13;;;1.95;;
15258;SDS011;34462;51.368;12.364;2023-05-16T13:18:12;6.10;;;1.80;;
15258;SDS011;34462;51.368;12.364;2023-05-16T13:20:40;4.85;;;1.67;;
15258;SDS011;34462;51.368;12.364;2023-05-16T13:23:08;3.80;;;1.55;;
15258;SDS011;34462;51.368;12.364;2023-05-16T13:25:36;4.70;;;1.67;;
15258;SDS011;34462;51.368;12.364;2023-05-16T13:28:06;6.22;;;1.52;;
15258;SDS011;34462;51.368;12.364;2023-05-16T13:30:34;4.68;;;1.38;;
15258;SDS011;34462;51.368;12.364;2023-05-16T13:33:02;4.40;;;1.60;;
15258;SDS011;34462;51.368;12.364;2023-05-16T13:35:32;9.27;;;1.98;;
15258;SDS011;34462;51.368;12.364;2023-05-16T13:38:00;4.65;;;1.60;;
15258;SDS011;34462;51.368;12.364;2023-05-16T13:40:29;4.47;;;1.30;;
15258;SDS011;34462;51.368;12.364;2023-05-16T13:42:58;2.28;;;1.27;;
15258;SDS011;34462;51.368;12.364;2023-05-16T13:45:26;4.15;;;1.38;;
15258;SDS011;34462;51.368;12.364;2023-05-16T13:47:56;6.10;;;1.45;;
15258;SDS011;34462;51.368;12.364;2023-05-16T13:50:24;5.70;;;1.40;;
15258;SDS011;34462;51.368;12.364;2023-05-16T13:53:00;4.75;;;1.50;;
15258;SDS011;34462;51.368;12.364;2023-05-16T13:55:29;4.55;;;1.23;;
15258;SDS011;34462;51.368;12.364;2023-05-16T13:57:57;5.25;;;1.75;;
15258;SDS011;34462;51.368;12.364;2023-05-16T14:00:26;5.13;;;1.67;;
15258;SDS011;34462;51.368;12.364;2023-05-16T14:03:10;4.43;;;1.50;;
15258;SDS011;34462;51.368;12.364;2023-05-16T14:05:39;4.43;;;1.52;;
15258;SDS011;34462;51.368;12.364;2023-05-16T14:08:09;4.70;;;1.38;;
15258;SDS011;34462;51.368;12.364;2023-05-16T14:10:37;3.50;;;1.25;;
15258;SDS011;34462;51.368;12.364;2023-05-16T14:13:05;3.85;;;1.08;;
15258;SDS011;34462;51.368;12.364;2023-05-16T14:15:33;8.10;;;1.70;;
15258;SDS011;34462;51.368;12.364;2023-05-16T14:18:01;3.05;;;1.40;;
15258;SDS011;34462;51.368;12.364;2023-05-16T14:20:30;3.63;;;1.55;;
15258;SDS011;34462;51.368;12.364;2023-05-16T14:22:59;3.25;;;1.27;;
15258;SDS011;34462;51.368;12.364;2023-05-16T14:25:28;4.53;;;1.30;;
15258;SDS011;34462;51.368;12.364;2023-05-16T14:27:57;4.07;;;1.33;;
15258;SDS011;34462;51.368;12.364;2023-05-16T14:30:25;4.38;;;1.50;;
15258;SDS011;34462;51.368;12.364;2023-05-16T14:32:54;5.18;;;1.38;;
15258;SDS011;34462;51.368;12.364;2023-05-16T14:35:22;3.10;;;1.30;;
15258;SDS011;34462;51.368;12.364;2023-05-16T14:37:51;2.58;;;1.23;;
15258;SDS011;34462;51.368;12.364;2023-05-16T14:40:21;4.45;;;1.63;;